createdAt,value
2023-02-14T00:01:49.400Z,22.87
2023-02-14T00:04:16.732Z,22.53
2023-02-14T00:06:43.344Z,21.77
2023-02-14T00:09:16.912Z,22.43
2023-02-14T00:11:43.446Z,22.07
2023-02-14T00:14:28.786Z,21.03
2023-02-14T00:16:55.408Z,21.20
2023-02-14T00:19:21.966Z,22.17
2023-02-14T00:21:48.678Z,23.70
2023-02-14T00:24:15.950Z,23.77
2023-02-14T00:26:42.489Z,23.53
2023-02-14T00:29:09.830Z,23.97
2023-02-14T00:31:37.436Z,23.67
2023-02-14T00:34:04.294Z,24.77
2023-02-14T00:36:30.885Z,24.30
2023-02-14T00:38:57.488Z,23.33
2023-02-14T00:41:23.983Z,24.23
2023-02-14T00:43:51.054Z,26.97
2023-02-14T00:46:17.703Z,24.70
2023-02-14T00:48:44.242Z,24.27
2023-02-14T00:51:10.804Z,23.93
2023-02-14T00:53:37.370Z,25.20
2023-02-14T00:56:03.935Z,24.17
2023-02-14T00:58:30.554Z,24.63
2023-02-14T01:00:57.542Z,25.13
2023-02-14T01:03:24.308Z,25.63
2023-02-14T01:05:50.839Z,29.00
2023-02-14T01:08:17.327Z,28.33
2023-02-14T01:10:43.918Z,27.47
2023-02-14T01:13:10.798Z,26.87
2023-02-14T01:15:45.268Z,22.87
2023-02-14T01:18:11.851Z,23.03
2023-02-14T01:20:38.345Z,21.50
2023-02-14T01:23:04.829Z,23.07
2023-02-14T01:25:31.329Z,23.80
2023-02-14T01:27:57.822Z,22.60
2023-02-14T01:30:24.394Z,22.30
2023-02-14T01:32:50.967Z,21.33
2023-02-14T01:35:17.612Z,23.67
2023-02-14T01:37:44.116Z,22.37
2023-02-14T01:40:11.135Z,23.17
2023-02-14T01:42:37.696Z,21.03
2023-02-14T01:45:05.680Z,22.30
2023-02-14T01:47:33.391Z,22.77
2023-02-14T01:50:04.834Z,21.73
2023-02-14T01:52:35.200Z,22.83
2023-02-14T01:55:03.150Z,23.07
2023-02-14T01:57:32.056Z,25.43
2023-02-14T02:00:18.714Z,23.43
2023-02-14T02:02:45.199Z,23.33
2023-02-14T02:05:11.685Z,23.13
2023-02-14T02:07:38.190Z,22.70
2023-02-14T02:10:06.294Z,22.50
2023-02-14T02:12:35.551Z,21.87
2023-02-14T02:15:02.168Z,23.33
2023-02-14T02:17:28.683Z,21.60
2023-02-14T02:19:58.272Z,20.10
2023-02-14T02:22:24.775Z,20.53
2023-02-14T02:25:03.233Z,19.83
2023-02-14T02:27:41.975Z,19.40
2023-02-14T02:30:14.645Z,19.67
2023-02-14T02:32:50.398Z,19.40
2023-02-14T02:35:19.726Z,17.70
2023-02-14T02:38:01.778Z,17.57
2023-02-14T02:40:47.104Z,17.53
2023-02-14T02:43:32.328Z,16.93
2023-02-14T02:46:39.134Z,17.73
2023-02-14T02:49:11.662Z,16.20
2023-02-14T02:51:59.255Z,17.23
2023-02-14T02:54:38.853Z,17.20
2023-02-14T02:57:05.929Z,15.87
2023-02-14T02:59:33.365Z,17.50
2023-02-14T03:02:17.917Z,16.67
2023-02-14T03:04:54.792Z,16.50
2023-02-14T03:07:36.517Z,16.17
2023-02-14T03:10:15.091Z,15.47
2023-02-14T03:12:59.883Z,16.30
2023-02-14T03:15:35.648Z,16.40
2023-02-14T03:18:02.191Z,15.97
2023-02-14T03:20:31.680Z,15.60
2023-02-14T03:23:01.204Z,15.83
2023-02-14T03:25:27.737Z,16.57
2023-02-14T03:28:13.166Z,15.03
2023-02-14T03:30:42.884Z,14.90
2023-02-14T03:33:15.520Z,15.17
2023-02-14T03:35:41.997Z,14.43
2023-02-14T03:38:08.504Z,14.43
2023-02-14T03:40:42.557Z,13.70
2023-02-14T03:43:12.663Z,14.70
2023-02-14T03:45:41.077Z,14.20
2023-02-14T03:48:08.355Z,14.27
2023-02-14T03:50:35.000Z,14.00
2023-02-14T03:53:01.480Z,14.17
2023-02-14T03:55:30.658Z,14.27
2023-02-14T03:58:17.100Z,12.97
2023-02-14T04:00:43.768Z,14.40
2023-02-14T04:03:12.156Z,15.00
2023-02-14T04:05:42.257Z,14.27
2023-02-14T04:08:08.743Z,15.47
2023-02-14T04:10:35.306Z,15.07
2023-02-14T04:13:01.800Z,15.30
2023-02-14T04:15:28.282Z,15.90
2023-02-14T04:18:15.198Z,17.63
2023-02-14T04:20:41.729Z,16.90
2023-02-14T04:23:08.204Z,17.30
2023-02-14T04:25:34.768Z,17.20
2023-02-14T04:28:01.333Z,17.77
2023-02-14T04:30:27.929Z,17.97
2023-02-14T04:32:54.540Z,17.23
2023-02-14T04:35:21.006Z,17.40
2023-02-14T04:37:47.489Z,15.33
2023-02-14T04:40:17.331Z,16.67
2023-02-14T04:42:44.590Z,16.63
2023-02-14T04:45:11.093Z,18.10
2023-02-14T04:47:37.668Z,15.70
2023-02-14T04:50:04.497Z,17.33
2023-02-14T04:52:31.052Z,16.47
2023-02-14T04:54:57.641Z,16.57
2023-02-14T04:57:24.144Z,16.70
2023-02-14T04:59:50.668Z,14.70
2023-02-14T05:02:17.308Z,16.17
2023-02-14T05:04:43.831Z,17.30
2023-02-14T05:07:10.381Z,16.50
2023-02-14T05:09:36.912Z,17.33
2023-02-14T05:12:03.454Z,18.57
2023-02-14T05:14:29.997Z,18.67
2023-02-14T05:16:56.534Z,17.93
2023-02-14T05:19:23.148Z,19.50
2023-02-14T05:21:49.720Z,21.37
2023-02-14T05:24:16.516Z,22.17
2023-02-14T05:26:43.107Z,22.73
2023-02-14T05:29:09.742Z,22.80
2023-02-14T05:31:36.541Z,22.60
2023-02-14T05:34:03.250Z,23.03
2023-02-14T05:36:29.815Z,24.00
2023-02-14T05:38:56.292Z,24.30
2023-02-14T05:41:25.018Z,25.47
2023-02-14T05:43:51.481Z,24.70
2023-02-14T05:46:18.055Z,25.20
2023-02-14T05:48:45.894Z,23.13
2023-02-14T05:51:12.430Z,22.70
2023-02-14T05:53:39.157Z,22.53
2023-02-14T05:56:05.983Z,21.57
2023-02-14T05:58:33.079Z,22.47
2023-02-14T06:01:00.119Z,23.43
2023-02-14T06:03:27.148Z,21.50
2023-02-14T06:05:53.728Z,23.60
2023-02-14T06:08:20.350Z,23.17
2023-02-14T06:10:46.937Z,22.93
2023-02-14T06:13:13.544Z,23.43
2023-02-14T06:15:40.055Z,21.73
2023-02-14T06:18:06.740Z,21.97
2023-02-14T06:20:33.493Z,20.87
2023-02-14T06:23:00.010Z,19.77
2023-02-14T06:25:26.563Z,20.77
2023-02-14T06:27:55.689Z,19.70
2023-02-14T06:30:22.304Z,19.57
2023-02-14T06:32:48.871Z,19.87
2023-02-14T06:35:15.512Z,20.40
2023-02-14T06:37:42.441Z,20.87
2023-02-14T06:40:09.679Z,20.47
2023-02-14T06:42:36.196Z,21.97
2023-02-14T06:45:02.882Z,20.83
2023-02-14T06:47:29.410Z,22.77
2023-02-14T06:49:56.021Z,21.43
2023-02-14T06:52:22.547Z,23.20
2023-02-14T06:54:49.052Z,21.13
2023-02-14T06:57:15.623Z,20.93
2023-02-14T06:59:42.458Z,21.63
2023-02-14T07:02:10.489Z,20.77
2023-02-14T07:04:37.102Z,22.20
2023-02-14T07:07:04.350Z,19.33
2023-02-14T07:09:30.841Z,20.97
2023-02-14T07:11:57.388Z,21.57
2023-02-14T07:14:23.882Z,20.40
2023-02-14T07:16:50.403Z,20.63
2023-02-14T07:19:16.986Z,19.03
2023-02-14T07:21:43.496Z,21.60
2023-02-14T07:24:10.082Z,18.83
2023-02-14T07:26:36.632Z,19.33
2023-02-14T07:29:03.254Z,23.67
2023-02-14T07:31:29.873Z,25.37
2023-02-14T07:33:58.574Z,25.57
2023-02-14T07:36:25.066Z,25.97
2023-02-14T07:38:51.546Z,24.00
2023-02-14T07:41:18.043Z,23.37
2023-02-14T07:43:44.527Z,22.17
2023-02-14T07:46:11.150Z,21.27
2023-02-14T07:48:39.332Z,21.87
2023-02-14T07:51:05.856Z,20.70
2023-02-14T07:53:32.363Z,20.53
2023-02-14T07:55:58.872Z,20.57
2023-02-14T07:58:25.529Z,19.93
2023-02-14T08:00:52.470Z,21.33
2023-02-14T08:03:19.119Z,21.60
2023-02-14T08:05:45.646Z,20.67
2023-02-14T08:08:12.186Z,21.93
2023-02-14T08:10:38.682Z,20.60
2023-02-14T08:13:05.201Z,20.17
2023-02-14T08:15:50.953Z,19.30
2023-02-14T08:18:18.416Z,21.80
2023-02-14T08:20:45.359Z,20.60
2023-02-14T08:23:12.025Z,22.10
2023-02-14T08:25:39.283Z,20.17
2023-02-14T08:28:06.017Z,19.90
2023-02-14T08:30:32.761Z,20.07
2023-02-14T08:32:59.380Z,19.17
2023-02-14T08:35:26.252Z,19.07
2023-02-14T08:37:52.798Z,18.43
2023-02-14T08:40:20.496Z,18.20
2023-02-14T08:42:47.108Z,19.23
2023-02-14T08:45:13.608Z,17.30
2023-02-14T08:47:40.481Z,18.10
2023-02-14T08:50:07.986Z,17.03
2023-02-14T08:52:34.495Z,16.63
2023-02-14T08:55:02.199Z,16.03
2023-02-14T08:57:29.503Z,17.90
2023-02-14T08:59:55.998Z,16.47
2023-02-14T09:02:22.549Z,17.20
2023-02-14T09:04:49.122Z,15.17
2023-02-14T09:07:15.649Z,16.47
2023-02-14T09:09:42.157Z,14.93
2023-02-14T09:12:09.082Z,14.63
2023-02-14T09:14:36.476Z,12.90
2023-02-14T09:17:05.584Z,12.77
2023-02-14T09:19:32.843Z,12.40
2023-02-14T09:21:59.557Z,12.30
2023-02-14T09:24:27.789Z,16.47
2023-02-14T09:26:54.525Z,20.60
2023-02-14T09:29:21.238Z,20.23
2023-02-14T09:31:47.950Z,19.03
2023-02-14T09:34:33.286Z,14.90
2023-02-14T09:37:18.728Z,11.70
2023-02-14T09:39:45.741Z,12.67
2023-02-14T09:42:18.289Z,13.30
2023-02-14T09:44:52.422Z,12.00
2023-02-14T09:47:25.089Z,12.57
2023-02-14T09:49:51.661Z,11.40
2023-02-14T09:52:18.687Z,11.10
2023-02-14T09:54:47.235Z,12.00
2023-02-14T09:57:13.743Z,9.43
2023-02-14T09:59:40.212Z,11.17
2023-02-14T10:02:22.948Z,13.17
2023-02-14T10:04:55.616Z,12.83
2023-02-14T10:07:27.327Z,15.67
2023-02-14T10:10:06.148Z,17.20
2023-02-14T10:12:38.209Z,20.17
2023-02-14T10:15:10.806Z,15.83
2023-02-14T10:17:41.058Z,14.60
2023-02-14T10:20:15.324Z,15.17
2023-02-14T10:22:42.420Z,14.27
2023-02-14T10:25:29.193Z,14.13
2023-02-14T10:27:55.928Z,14.97
2023-02-14T10:30:23.024Z,15.63
2023-02-14T10:33:08.641Z,15.03
2023-02-14T10:35:43.483Z,14.97
2023-02-14T10:38:17.641Z,15.87
2023-02-14T10:40:47.307Z,14.03
2023-02-14T10:43:15.583Z,13.20
2023-02-14T10:45:45.580Z,13.53
2023-02-14T10:48:18.286Z,12.90
2023-02-14T10:50:50.836Z,12.60
2023-02-14T10:53:23.350Z,11.97
2023-02-14T10:55:50.026Z,12.70
2023-02-14T10:58:17.738Z,12.97
2023-02-14T11:00:49.557Z,12.53
2023-02-14T11:03:16.161Z,9.77
2023-02-14T11:05:46.204Z,11.67
2023-02-14T11:08:16.105Z,11.93
2023-02-14T11:10:42.687Z,12.07
2023-02-14T11:13:28.141Z,9.97
2023-02-14T11:15:54.718Z,9.97
2023-02-14T11:18:22.441Z,10.53
2023-02-14T11:20:59.172Z,8.13
2023-02-14T11:23:25.818Z,8.40
2023-02-14T11:25:53.730Z,9.37
2023-02-14T11:28:20.320Z,9.17
2023-02-14T11:30:47.688Z,9.07
2023-02-14T11:33:25.734Z,10.00
2023-02-14T11:35:52.258Z,8.87
2023-02-14T11:38:27.266Z,8.67
2023-02-14T11:40:57.108Z,6.47
2023-02-14T11:43:30.060Z,7.83
2023-02-14T11:46:05.722Z,7.13
2023-02-14T11:48:38.996Z,8.80
2023-02-14T11:51:14.058Z,8.83
2023-02-14T11:53:54.953Z,9.20
2023-02-14T11:56:22.217Z,8.73
2023-02-14T11:59:07.079Z,9.37
2023-02-14T12:01:34.636Z,10.27
2023-02-14T12:04:02.024Z,9.37
2023-02-14T12:06:30.333Z,8.37
2023-02-14T12:09:15.588Z,9.30
2023-02-14T12:11:42.183Z,9.00
2023-02-14T12:14:09.547Z,8.47
2023-02-14T12:16:40.368Z,11.00
2023-02-14T12:19:50.890Z,9.57
2023-02-14T12:22:22.000Z,8.93
2023-02-14T12:25:03.584Z,6.37
2023-02-14T12:27:31.131Z,6.03
2023-02-14T12:30:03.116Z,7.33
2023-02-14T12:32:30.558Z,9.73
2023-02-14T12:35:12.335Z,12.03
2023-02-14T12:37:41.126Z,11.03
2023-02-14T12:40:20.355Z,9.03
2023-02-14T12:42:49.929Z,9.80
2023-02-14T12:45:22.640Z,9.40
2023-02-14T12:47:55.303Z,10.07
2023-02-14T12:50:21.821Z,9.87
2023-02-14T12:52:56.700Z,9.03
2023-02-14T12:55:41.595Z,8.63
2023-02-14T12:58:11.130Z,9.70
2023-02-14T13:00:56.440Z,9.57
2023-02-14T13:03:49.671Z,8.70
2023-02-14T13:06:32.133Z,9.27
2023-02-14T13:09:01.518Z,9.37
2023-02-14T13:11:31.223Z,9.23
2023-02-14T13:14:04.671Z,10.20
2023-02-14T13:16:36.152Z,9.50
2023-02-14T13:19:22.981Z,9.47
2023-02-14T13:21:49.520Z,10.90
2023-02-14T13:24:26.180Z,10.43
2023-02-14T13:26:55.415Z,10.47
2023-02-14T13:29:23.789Z,10.33
2023-02-14T13:31:51.176Z,10.80
2023-02-14T13:34:26.866Z,10.50
2023-02-14T13:36:53.709Z,10.37
2023-02-14T13:39:25.790Z,9.73
2023-02-14T13:41:52.299Z,8.80
2023-02-14T13:44:45.406Z,8.87
2023-02-14T13:47:32.213Z,9.30
2023-02-14T13:49:59.950Z,8.93
2023-02-14T13:52:45.620Z,10.57
2023-02-14T13:55:19.368Z,7.97
2023-02-14T13:57:46.850Z,8.33
2023-02-14T14:00:16.530Z,8.93
2023-02-14T14:02:52.922Z,9.27
2023-02-14T14:05:40.639Z,9.10
2023-02-14T14:08:22.601Z,11.40
2023-02-14T14:10:53.216Z,9.60
2023-02-14T14:13:55.550Z,8.70
2023-02-14T14:16:27.955Z,9.33
2023-02-14T14:18:54.731Z,9.13
2023-02-14T14:21:24.045Z,10.00
2023-02-14T14:24:04.223Z,9.47
2023-02-14T14:26:35.614Z,10.87
2023-02-14T14:29:02.391Z,10.20
2023-02-14T14:31:29.278Z,10.43
2023-02-14T14:33:59.674Z,10.17
2023-02-14T14:36:26.285Z,8.97
2023-02-14T14:38:54.272Z,9.27
2023-02-14T14:41:26.163Z,9.60
2023-02-14T14:43:52.850Z,9.63
2023-02-14T14:46:19.414Z,10.37
2023-02-14T14:48:46.952Z,11.40
2023-02-14T14:51:33.440Z,12.10
2023-02-14T14:54:04.205Z,11.03
2023-02-14T14:56:37.794Z,9.40
2023-02-14T14:59:26.009Z,8.83
2023-02-14T15:01:54.519Z,8.67
2023-02-14T15:04:24.214Z,8.90
2023-02-14T15:06:51.238Z,10.17
2023-02-14T15:09:23.768Z,8.93
2023-02-14T15:12:09.429Z,8.77
2023-02-14T15:14:36.454Z,9.60
2023-02-14T15:17:22.027Z,9.77
2023-02-14T15:19:54.141Z,9.80
2023-02-14T15:22:22.288Z,11.30
2023-02-14T15:24:49.051Z,9.87
2023-02-14T15:27:16.155Z,10.40
2023-02-14T15:29:42.737Z,10.53
2023-02-14T15:32:09.461Z,10.73
2023-02-14T15:34:38.990Z,10.67
2023-02-14T15:37:06.870Z,12.20
2023-02-14T15:39:35.951Z,12.33
2023-02-14T15:42:02.484Z,11.93
2023-02-14T15:44:29.013Z,12.27
2023-02-14T15:46:56.261Z,13.67
2023-02-14T15:49:23.167Z,14.20
2023-02-14T15:51:49.748Z,19.60
2023-02-14T15:54:28.368Z,18.07
2023-02-14T15:56:56.755Z,19.93
2023-02-14T15:59:24.153Z,17.57
2023-02-14T16:01:52.675Z,18.67
2023-02-14T16:04:24.345Z,17.97
2023-02-14T16:07:03.069Z,18.17
2023-02-14T16:09:30.117Z,17.13
2023-02-14T16:11:56.611Z,12.43
2023-02-14T16:14:36.078Z,15.83
2023-02-14T16:17:03.754Z,15.33
2023-02-14T16:19:50.569Z,16.73
2023-02-14T16:22:32.065Z,15.37
2023-02-14T16:24:59.113Z,15.80
2023-02-14T16:27:25.608Z,17.87
2023-02-14T16:29:52.289Z,19.03
2023-02-14T16:32:20.361Z,16.50
2023-02-14T16:34:47.596Z,13.97
2023-02-14T16:37:19.108Z,17.03
2023-02-14T16:39:45.651Z,17.73
2023-02-14T16:42:15.999Z,16.60
2023-02-14T16:44:42.624Z,16.60
2023-02-14T16:47:13.018Z,19.30
2023-02-14T16:49:39.838Z,18.50
2023-02-14T16:52:06.695Z,22.80
2023-02-14T16:54:33.444Z,24.17
2023-02-14T16:57:00.441Z,25.43
2023-02-14T16:59:27.196Z,21.30
2023-02-14T17:01:53.966Z,22.97
2023-02-14T17:04:21.248Z,23.90
2023-02-14T17:06:49.382Z,22.07
2023-02-14T17:09:16.561Z,20.10
2023-02-14T17:11:43.627Z,19.10
2023-02-14T17:14:11.063Z,17.67
2023-02-14T17:16:37.550Z,17.03
2023-02-14T17:19:04.113Z,21.03
2023-02-14T17:21:31.025Z,22.93
2023-02-14T17:23:57.578Z,20.67
2023-02-14T17:26:24.277Z,22.13
2023-02-14T17:28:50.788Z,18.03
2023-02-14T17:31:18.270Z,18.00
2023-02-14T17:33:44.971Z,16.43
2023-02-14T17:36:12.515Z,17.90
2023-02-14T17:38:39.681Z,17.70
2023-02-14T17:41:16.678Z,18.57
2023-02-14T17:43:43.280Z,20.00
2023-02-14T17:46:09.913Z,26.70
2023-02-14T17:48:36.444Z,24.73
2023-02-14T17:51:04.257Z,22.03
2023-02-14T17:53:30.747Z,24.90
2023-02-14T17:55:58.187Z,25.90
2023-02-14T17:58:24.739Z,24.70
2023-02-14T18:00:51.330Z,23.13
2023-02-14T18:03:17.831Z,25.20
2023-02-14T18:05:44.318Z,20.73
2023-02-14T18:08:10.783Z,19.87
2023-02-14T18:10:37.731Z,19.70
2023-02-14T18:13:04.221Z,20.53
2023-02-14T18:15:31.261Z,21.53
2023-02-14T18:17:58.092Z,22.83
2023-02-14T18:20:24.701Z,32.07
2023-02-14T18:22:51.315Z,27.50
2023-02-14T18:25:18.009Z,24.50
2023-02-14T18:27:44.533Z,20.83
2023-02-14T18:30:11.341Z,20.10
2023-02-14T18:32:37.906Z,25.00
2023-02-14T18:35:04.448Z,25.17
2023-02-14T18:37:30.988Z,25.23
2023-02-14T18:39:57.501Z,20.03
2023-02-14T18:42:24.342Z,16.50
2023-02-14T18:44:50.908Z,11.03
2023-02-14T18:47:17.407Z,9.27
2023-02-14T18:49:44.120Z,10.13
2023-02-14T18:52:10.699Z,10.00
2023-02-14T18:54:37.315Z,9.97
2023-02-14T18:57:03.976Z,8.80
2023-02-14T18:59:30.709Z,9.73
2023-02-14T19:01:57.270Z,10.37
2023-02-14T19:04:23.854Z,12.23
2023-02-14T19:06:50.420Z,12.97
2023-02-14T19:09:17.629Z,13.50
2023-02-14T19:11:44.218Z,18.27
2023-02-14T19:14:11.018Z,18.00
2023-02-14T19:16:38.635Z,19.63
2023-02-14T19:19:06.275Z,18.10
2023-02-14T19:21:36.861Z,16.93
2023-02-14T19:24:06.906Z,14.33
2023-02-14T19:26:35.097Z,14.30
2023-02-14T19:29:05.449Z,15.10
2023-02-14T19:31:36.326Z,13.47
2023-02-14T19:34:03.524Z,13.97
2023-02-14T19:36:30.159Z,18.53
2023-02-14T19:38:57.274Z,17.40
2023-02-14T19:41:24.622Z,18.87
2023-02-14T19:43:51.440Z,16.63
2023-02-14T19:46:21.210Z,22.20
2023-02-14T19:48:48.524Z,21.63
2023-02-14T19:51:16.036Z,20.43
2023-02-14T19:53:42.948Z,20.00
2023-02-14T19:56:09.998Z,20.33
2023-02-14T19:58:37.135Z,21.33
2023-02-14T20:01:05.884Z,21.10
2023-02-14T20:03:33.185Z,20.60
2023-02-14T20:05:59.972Z,21.00
2023-02-14T20:08:27.347Z,17.20
2023-02-14T20:10:54.341Z,17.43
2023-02-14T20:13:20.885Z,17.00
2023-02-14T20:15:47.944Z,15.80
2023-02-14T20:18:14.899Z,14.70
2023-02-14T20:21:04.121Z,14.33
2023-02-14T20:23:31.609Z,15.63
2023-02-14T20:25:58.210Z,19.50
2023-02-14T20:28:24.784Z,25.60
2023-02-14T20:30:51.970Z,25.93
2023-02-14T20:33:18.628Z,24.23
2023-02-14T20:35:45.267Z,20.97
2023-02-14T20:38:12.288Z,18.10
2023-02-14T20:40:39.344Z,17.90
2023-02-14T20:43:05.910Z,21.47
2023-02-14T20:45:33.108Z,21.27
2023-02-14T20:48:03.461Z,22.27
2023-02-14T20:50:30.735Z,21.57
2023-02-14T20:52:57.538Z,23.63
2023-02-14T20:55:24.116Z,24.50
2023-02-14T20:57:50.587Z,23.63
2023-02-14T21:00:17.551Z,26.00
2023-02-14T21:02:44.086Z,22.73
2023-02-14T21:05:10.667Z,20.40
2023-02-14T21:07:38.138Z,21.57
2023-02-14T21:10:04.984Z,20.67
2023-02-14T21:12:31.483Z,18.47
2023-02-14T21:14:58.536Z,16.80
2023-02-14T21:17:25.113Z,16.80
2023-02-14T21:19:51.640Z,17.23
2023-02-14T21:22:18.214Z,18.40
2023-02-14T21:24:44.784Z,17.70
2023-02-14T21:27:11.901Z,18.17
2023-02-14T21:29:38.733Z,18.80
2023-02-14T21:32:05.518Z,16.33
2023-02-14T21:34:32.852Z,13.87
2023-02-14T21:37:02.588Z,12.83
2023-02-14T21:39:31.077Z,13.13
2023-02-14T21:41:57.882Z,14.63
2023-02-14T21:44:43.126Z,14.77
2023-02-14T21:47:09.754Z,14.03
2023-02-14T21:49:54.962Z,17.70
2023-02-14T21:52:21.558Z,18.27
2023-02-14T21:54:48.275Z,12.70
2023-02-14T21:57:14.814Z,12.33
2023-02-14T21:59:41.858Z,12.60
2023-02-14T22:02:08.389Z,12.83
2023-02-14T22:04:35.680Z,13.13
2023-02-14T22:07:02.220Z,13.30
2023-02-14T22:09:28.782Z,13.33
2023-02-14T22:11:55.864Z,13.60
2023-02-14T22:14:22.418Z,14.40
2023-02-14T22:16:48.962Z,12.07
2023-02-14T22:19:15.792Z,14.47
2023-02-14T22:21:42.528Z,11.53
2023-02-14T22:24:09.117Z,11.77
2023-02-14T22:26:38.921Z,14.50
2023-02-14T22:29:05.668Z,13.33
2023-02-14T22:31:33.534Z,13.97
2023-02-14T22:34:01.331Z,16.47
2023-02-14T22:36:27.883Z,19.27
2023-02-14T22:38:54.372Z,18.47
2023-02-14T22:41:21.777Z,22.53
2023-02-14T22:43:48.337Z,20.33
2023-02-14T22:46:15.624Z,20.40
2023-02-14T22:48:42.466Z,22.83
2023-02-14T22:51:09.055Z,16.10
2023-02-14T22:53:35.784Z,13.00
2023-02-14T22:56:09.414Z,12.00
2023-02-14T22:58:35.928Z,14.57
2023-02-14T23:01:02.594Z,19.23
2023-02-14T23:03:29.334Z,22.87
2023-02-14T23:05:56.435Z,22.27
2023-02-14T23:08:23.057Z,24.17
2023-02-14T23:10:49.580Z,27.03
2023-02-14T23:13:34.823Z,29.67
2023-02-14T23:16:19.870Z,29.80
2023-02-14T23:19:05.381Z,24.77
2023-02-14T23:21:50.516Z,25.27
2023-02-14T23:24:17.044Z,25.40
2023-02-14T23:26:43.608Z,24.50
2023-02-14T23:29:10.294Z,16.93
2023-02-14T23:31:36.966Z,18.20
2023-02-14T23:34:03.670Z,17.57
2023-02-14T23:36:31.025Z,21.43
2023-02-14T23:38:57.652Z,20.83
2023-02-14T23:41:42.931Z,19.53
2023-02-14T23:44:09.499Z,20.83
2023-02-14T23:46:36.036Z,21.83
2023-02-14T23:49:02.749Z,19.20
2023-02-14T23:51:29.347Z,19.17
2023-02-14T23:53:55.946Z,20.30
2023-02-14T23:56:22.457Z,17.40
2023-02-14T23:58:48.999Z,16.97
